METAR Data
IDs: Format: Raw Decoded Include TAF

Data at: 0207 UTC 26 Apr 2019

KGNT 260155Z AUTO 00000KT 10SM BKN110 19/M02 A3017 RMK AO2 LTG DSNT N THRU SE T01861021
KGNT 260135Z AUTO 08003KT 10SM BKN110 20/M03 A3017 RMK AO2 T02011030
KGNT 260115Z AUTO 36005KT 10SM BKN120 21/M03 A3017 RMK AO2 LTG DSNT N AND NW T02061030
KGNT 260055Z AUTO 08004KT 10SM OVC110 21/M03 A3017 RMK AO2 T02131034
KGNT 260035Z AUTO 02012G16KT 10SM BKN110 23/M04 A3017 RMK AO2 T02291037
KGNT 260015Z AUTO 07004KT 10SM TS BKN110 23/M03 A3016 RMK AO2 LTG DSNT E AND SE T02251026
KGNT 252355Z AUTO 00000KT 10SM OVC110 21/M02 A3016 RMK AO2 T02131020 10236 20205
KGNT 252335Z AUTO 10006KT 10SM OVC110 21/M02 A3015 RMK AO2 T02141016
KGNT 252315Z AUTO 08003KT 10SM BKN110 22/M03 A3015 RMK AO2 T02211034
KGNT 252255Z AUTO 07003KT 10SM SCT110 22/M03 A3015 RMK AO2 T02221034
KGNT 252235Z AUTO 00000KT 10SM BKN110 22/M03 A3016 RMK AO2 T02211026
KGNT 252215Z AUTO 18007KT 10SM SCT110 22/M01 A3016 RMK AO2 T02171012
KGNT 252155Z AUTO 16003KT 10SM SCT110 22/M03 A3016 RMK AO2 T02201031
KGNT 252135Z AUTO 32008KT 10SM BKN100 23/M04 A3017 RMK AO2 T02261039
KGNT 252115Z AUTO 35003KT 10SM SCT100 SCT120 23/M03 A3017 RMK AO2 T02261032
KGNT 252055Z AUTO 00000KT 10SM BKN100 23/M04 A3018 RMK AO2 T02341038
KGNT 252015Z AUTO 00000KT 10SM SCT100 23/M04 A3018 RMK AO2 T02301038
KGNT 251955Z AUTO 02005KT 10SM SCT100 23/M04 A3018 RMK AO2 T02341036
KGNT 251935Z AUTO 34008KT 10SM CLR 23/M04 A3018 RMK AO2 T02321039
KGNT 251915Z AUTO 01007KT 10SM CLR 23/M04 A3018 RMK AO2 T02251045
KGNT 251855Z AUTO 35005G14KT 10SM CLR 22/M03 A3020 RMK AO2 T02191033
KGNT 251835Z AUTO 06005G16KT 10SM CLR 22/M02 A3020 RMK AO2 T02201017
KGNT 251815Z AUTO 04007KT 10SM CLR 21/M02 A3020 RMK AO2 T02141016
KGNT 251755Z AUTO 28003KT 10SM CLR 21/M01 A3021 RMK AO2 T02081013 10209 20001
KGNT 251735Z AUTO 11003KT 10SM CLR 20/M01 A3021 RMK AO2 T01991012
KGNT 251715Z AUTO 34003KT 10SM CLR 20/M01 A3022 RMK AO2 T01981008
KGNT 251655Z AUTO 00000KT 10SM CLR 19/M01 A3022 RMK AO2 T01861010
KGNT 251635Z AUTO 06003KT 10SM CLR 18/00 A3022 RMK AO2 T01761003
KGNT 251615Z AUTO 00000KT 10SM CLR 16/00 A3022 RMK AO2 T01621001
KGNT 251555Z AUTO 12006KT 10SM CLR 15/00 A3022 RMK AO2 T01511001
KGNT 251535Z AUTO 14006KT 10SM CLR 14/00 A3022 RMK AO2 T01400002
KGNT 251515Z AUTO 14006KT 10SM CLR 13/00 A3022 RMK AO2 T01300000
KGNT 251455Z AUTO 13004KT 10SM CLR 12/01 A3022 RMK AO2 T01150005
KGNT 251435Z AUTO 13003KT 10SM CLR 10/01 A3022 RMK AO2 T01030006
KGNT 251415Z AUTO 00000KT 10SM CLR 09/00 A3021 RMK AO2 T00910003
KGNT 251355Z AUTO 00000KT 10SM CLR 08/00 A3020 RMK AO2 T00760004
KGNT 251335Z AUTO 00000KT 10SM CLR 06/00 A3020 RMK AO2 T00550003
KGNT 251315Z AUTO 00000KT 10SM CLR 03/00 A3020 RMK AO2 T00321002
KGNT 251255Z AUTO 00000KT 10SM CLR 02/M02 A3018 RMK AO2 T00181018
KGNT 251235Z AUTO 00000KT 10SM CLR 02/M01 A3018 RMK AO2 T00231013
KGNT 251215Z AUTO 00000KT 10SM CLR 01/M02 A3016 RMK AO2 T00071017
KGNT 251155Z AUTO 00000KT 10SM CLR 00/M02 A3016 RMK AO2 T00021022 10078 20001
KGNT 251135Z AUTO 00000KT 10SM CLR 00/M02 A3016 RMK AO2 T00041021
KGNT 251115Z AUTO 00000KT 10SM CLR 02/M02 A3015 RMK AO2 T00171020
KGNT 251055Z AUTO 00000KT 10SM CLR 02/M01 A3014 RMK AO2 T00241015
KGNT 251035Z AUTO 00000KT 10SM CLR 03/M01 A3014 RMK AO2 T00251014
KGNT 251015Z AUTO 31006KT 10SM CLR 02/M02 A3013 RMK AO2 T00181018
KGNT 250955Z AUTO 32004KT 10SM CLR 02/M02 A3013 RMK AO2 T00211020
KGNT 250935Z AUTO 32004KT 10SM CLR 03/M01 A3013 RMK AO2 T00331011
KGNT 250915Z AUTO 31005KT 10SM CLR 03/M01 A3013 RMK AO2 T00341015
KGNT 250855Z AUTO 31005KT 10SM CLR 04/M02 A3013 RMK AO2 T00381017
KGNT 250835Z AUTO 30006KT 10SM CLR 05/M02 A3012 RMK AO2 T00461016
KGNT 250815Z AUTO 32007KT 10SM CLR 04/M02 A3012 RMK AO2 T00411017
KGNT 250755Z AUTO 31008KT 10SM CLR 05/M02 A3013 RMK AO2 T00481018
KGNT 250735Z AUTO 31009KT 10SM CLR 04/M02 A3012 RMK AO2 T00421017
KGNT 250715Z AUTO 30008KT 10SM CLR 05/M02 A3012 RMK AO2 T00511016
KGNT 250655Z AUTO 30009KT 10SM CLR 06/M01 A3012 RMK AO2 T00561013 402120000
KGNT 250555Z AUTO 31010G15KT 10SM CLR 08/M01 A3012 RMK AO2 T00771007 10202 20069
KGNT 250535Z AUTO 00000KT 10SM CLR 10/M02 A3012 RMK AO2 T00961016
KGNT 250515Z AUTO 00000KT 10SM CLR 10/M02 A3012 RMK AO2 T01041017
KGNT 250455Z AUTO 00000KT 10SM CLR 11/M02 A3012 RMK AO2 T01141019
KGNT 250435Z AUTO 34003KT 10SM CLR 12/M02 A3012 RMK AO2 T01231020
KGNT 250415Z AUTO 00000KT 10SM CLR 10/M01 A3011 RMK AO2 T01021015
KGNT 250355Z AUTO 00000KT 10SM CLR 11/M01 A3011 RMK AO2 T01061013
KGNT 250335Z AUTO 00000KT 10SM CLR 11/M01 A3011 RMK AO2 T01081015
KGNT 250315Z AUTO 00000KT 10SM CLR 13/M02 A3010 RMK AO2 T01251016
KGNT 250255Z AUTO 00000KT 10SM CLR 12/M01 A3009 RMK AO2 T01171007
KGNT 250235Z AUTO 30003KT 10SM CLR 12/M01 A3008 RMK AO2 T01161011
KGNT 250215Z AUTO 32006KT 10SM CLR 13/M01 A3007 RMK AO2 T01321011
KGNT 250155Z AUTO 32007KT 10SM SCT090 16/M03 A3006 RMK AO2 T01561028
KGNT 250135Z AUTO 35010KT 10SM SCT090 18/M03 A3006 RMK AO2 T01771035
KGNT 250115Z AUTO 35011G17KT 10SM CLR 18/M03 A3006 RMK AO2 T01781034
KGNT 250055Z AUTO 34012G20KT 10SM CLR 19/M04 A3006 RMK AO2 T01891038
KGNT 250035Z AUTO 35015G19KT 10SM CLR 19/M03 A3006 RMK AO2 T01931032
KGNT 250015Z AUTO 34016G22KT 10SM CLR 20/M03 A3006 RMK AO2 T02021034
KGNT 242355Z AUTO 34012G19KT 10SM SCT090 19/M03 A3006 RMK AO2 T01911034 10212 20162
KGNT 242335Z AUTO 32012G20KT 10SM SCT090 20/M03 A3006 RMK AO2 T01991028
KGNT 242315Z AUTO 32012G19KT 10SM SCT090 20/M03 A3006 RMK AO2 T02031033
KGNT 242255Z AUTO 32013G22KT 310V010 10SM CLR 20/M04 A3006 RMK AO2 T02001040
KGNT 242235Z AUTO 33010G23KT 10SM CLR 21/M04 A3006 RMK AO2 T02081040
KGNT 242215Z AUTO 36014G22KT 10SM CLR 21/M05 A3006 RMK AO2 T02061050
KGNT 242155Z AUTO 33011G20KT 10SM CLR 20/M06 A3006 RMK AO2 T02021057
KGNT 242135Z AUTO 34014G21KT 10SM CLR 20/M06 A3007 RMK AO2 T02031056
KGNT 242115Z AUTO 32016G22KT 10SM CLR 20/M08 A3007 RMK AO2 T02041079
KGNT 242055Z AUTO 34019G25KT 10SM SCT095 21/M06 A3008 RMK AO2 T02081058
KGNT 242035Z AUTO 33016G23KT 10SM SCT095 21/M04 A3007 RMK AO2 T02051043
KGNT 242015Z AUTO 34018G22KT 10SM SCT090 20/M03 A3008 RMK AO2 T01991030
KGNT 241955Z AUTO 35011G17KT 10SM BKN080 19/M03 A3009 RMK AO2 T01931034
KGNT 241935Z AUTO 32010G17KT 10SM SCT080 19/M03 A3009 RMK AO2 T01871030
KGNT 241915Z AUTO 35011G20KT 10SM SCT080 19/M02 A3010 RMK AO2 T01851025
KGNT 241855Z AUTO 34009G19KT 10SM SCT070 SCT080 18/M02 A3010 RMK AO2 T01831024
KGNT 241835Z AUTO 32015G19KT 10SM BKN070 BKN090 18/00 A3011 RMK AO2 T01761003
KGNT 241815Z AUTO 01008G15KT 10SM BKN070 OVC080 17/00 A3011 RMK AO2 T01651004
KGNT 241755Z AUTO 34011G18KT 10SM SCT055 SCT070 SCT080 17/00 A3012 RMK AO2 T01660003 10171 20000
KGNT 241735Z AUTO 30013G18KT 10SM CLR 17/03 A3013 RMK AO2 T01660031
KGNT 241715Z AUTO 35008G17KT 10SM CLR 15/04 A3014 RMK AO2 T01530043
KGNT 241655Z AUTO 36003G15KT 10SM CLR 15/04 A3015 RMK AO2 T01460041
KGNT 241635Z AUTO 35007KT 10SM CLR 14/04 A3015 RMK AO2 T01370041
KGNT 241615Z AUTO 33010G16KT 10SM CLR 12/05 A3015 RMK AO2 T01200053
KGNT 241555Z AUTO 31008G14KT 10SM CLR 10/05 A3016 RMK AO2 T00990053
KGNT 241535Z AUTO 31009KT 10SM CLR 09/05 A3016 RMK AO2 T00850047
KGNT 241515Z AUTO 31008KT 10SM CLR 07/04 A3016 RMK AO2 T00680042
KGNT 241455Z AUTO 33008KT 10SM CLR 06/04 A3016 RMK AO2 T00550035
KGNT 241435Z AUTO 33006KT 10SM CLR 05/03 A3016 RMK AO2 T00470027
KGNT 241415Z AUTO 35006KT 10SM CLR 04/02 A3016 RMK AO2 T00380018